Tiempo atmosférico en la estación meteorológica de Cabrales, Asturias (458 m.)

Fecha
DESCASC
Temp. máxima en grados centígrados (hora)
DESCASC
Temp. mínima en grados centígrados (hora)
DESCASC
Temp. media en grados centígrados
DESCASC
Racha de viento máxima en m/sg (hora)
DESCASC
Velocidad máxima media en intervalos de 10 minutos(hora)
DESCASC
Precipitaciones diarias en mm
DESCASC
Precipitaciones de 00:00 a 06:00 en mm
DESCASC
Precipitaciones de 06:00 a 12:00 en mm
DESCASC
Precipitaciones de 12:00 a 18:00 en mm
DESCASC
Precipitaciones de 18:00 a 24:00 en mm
DESCASC
10-12-2017 17.9 (08:10) 7 (23:59) 12.4 23.33 (23:00) 13.61 (23:00) 20.4 0 0 9.2 11.2
09-12-2017 13.6 (23:59) 5.2 (06:50) 9.4 11.67 (18:30) 7.78 (20:00) 4.4 0.4 0.6 3.2 0.2
08-12-2017 11.9 (00:10) 6.2 (22:00) 9 9.72 (04:10) 6.39 (15:10) 16.2 2.8 7.2 4.2 2
07-12-2017 15.3 (15:10) 5.7 (00:00) 10.5 6.67 (16:40) 4.17 (17:30) 1 0 0 0.4 0.6
06-12-2017 12.7 (14:50) 2.5 (00:00) 7.6 3.89 (18:30) 2.78 (17:10) 0.4 0 0.4 0 0
05-12-2017 10.8 (15:20) 0.9 (00:00) 5.9 3.89 (00:40) 2.5 (01:00) 0 0 0 0 0
04-12-2017 12.1 (15:10) 3.8 (00:00) 8 5.28 (20:50) 3.33 (16:20) 0 0 0 0 0
03-12-2017 7.2 (14:50) 1.7 (00:00) 4.4 4.17 (11:20) 2.5 (11:20) 2.4 2 0.4 0 0
02-12-2017 3.9 (12:50) 0.6 (00:00) 2.3 9.17 (10:30) 6.11 (10:30) 15.8 4.2 4.2 5.2 2.2
01-12-2017 5.3 (13:20) 1.2 (00:00) 3.3 20.56 (08:10) 11.11 (08:00) 28.2 6.6 15 2.6 4
30-11-2017 5 (15:40) 0.9 (00:00) 2.9 13.33 (22:40) 9.44 (22:40) 6.8 0.4 1.2 2.8 2.4
29-11-2017 5.9 (00:00) 0.9 (00:00) 3.4 8.06 (13:50) 5.83 (13:50) 25.6 0.6 11.6 7.4 6
28-11-2017 12.1 (15:10) 2.9 (00:00) 7.5 10.56 (14:50) 7.78 (15:00) 4.6 0 0 0 4.6
27-11-2017 10.2 (13:00) 2.2 (00:00) 6.2 5.28 (16:30) 3.61 (16:10) 0 0 0 0 0
26-11-2017 10.7 (13:10) 1.7 (00:00) 6.2 7.5 (16:20) 3.61 (15:50) 0 0 0 0 0
25-11-2017 9.6 (00:00) 4 (00:00) 6.8 10.83 (02:00) 7.5 (02:30) 12.6 3.4 6.4 2.2 0.6
24-11-2017 18.2 (00:00) 9.5 (00:00) 13.9 22.5 (00:50) 15 (01:40) 10.8 0.2 0.2 4.8 5.6
23-11-2017 20.5 (15:30) 14.7 (00:00) 17.6 25.83 (00:50) 16.39 (00:50) 0 0 0 0 0
22-11-2017 22.8 (13:50) 9.3 (00:00) 16 35 (21:00) 18.33 (21:00) 0 0 0 0 0
21-11-2017 19.5 (14:40) 7.6 (00:00) 13.5 3.89 (23:59) 2.78 (19:30) 0 0 0 0 0
20-11-2017 19.8 (14:00) 6.2 (00:00) 13 3.06 (17:00) 2.22 (23:50) 0 0 0 0 0
19-11-2017 14.6 (13:40) 3.5 (00:00) 9.1 5 (15:20) 3.61 (15:20) 0 0 0 0 0
18-11-2017 14.1 (14:30) 3.8 (00:00) 9 8.06 (16:10) 4.17 (16:40) 0 0 0 0 0
17-11-2017 14.8 (14:50) 6.2 (00:00) 10.5 4.72 (17:50) 3.06 (18:40) 0 0 0 0 0
16-11-2017 17 (13:20) 7.4 (00:00) 12.2 5.56 (16:00) 3.89 (16:00) 0 0 0 0 0
15-11-2017 14.9 (16:10) 3.1 (00:00) 9 6.67 (01:40) 4.72 (01:30) 0 0 0 0 0

Gráficas

Temp. máximas Temp. mínimas Temp. medias Precipitaciones Rachas de viento máximas Velocidades máximas media en intervalos de 10 minutos

Datos horarios

Fecha y hora oficial Temperatura (ºC) Velocidad del viento (km/h) Dirección del viento Racha (km/h) Dirección de racha Precipitación (mm) Presión (hPa) Tendencia (hPa) Humedad (%)
2017-12-14 23:00:00 8.4 19 Noroeste 45 Noroeste 0 -- -- 70
2017-12-14 22:00:00 9 22 Noroeste 53 Oeste 0 -- -- 74
2017-12-14 21:00:00 9.9 28 Oeste 47 Oeste 0 -- -- 81
2017-12-14 20:00:00 9.7 27 Noroeste 45 Noroeste 0.2 -- -- 95
2017-12-14 19:00:00 10.1 27 Noroeste 40 Noroeste 0 -- -- 98
2017-12-14 18:00:00 10.5 24 Noroeste 37 Norte 0 -- -- 95
2017-12-14 17:00:00 11.2 19 Noroeste 35 Noroeste 0 -- -- 92
2017-12-14 16:00:00 11.7 17 Noroeste 36 Noroeste 0 -- -- 88
2017-12-14 15:00:00 12 19 Norte 39 Noroeste 0 -- -- 90
2017-12-14 14:00:00 11.8 21 Noroeste 34 Noroeste 0 -- -- 92
2017-12-14 13:00:00 11.7 18 Noroeste 35 Norte 0 -- -- 90
2017-12-14 12:00:00 11.4 17 Norte 28 Norte 0 -- -- 96
2017-12-14 11:00:00 10.2 15 Noroeste 26 Noroeste 0 -- -- 100
2017-12-14 10:00:00 9.3 9 Noroeste 22 Noroeste 0.2 -- -- 100
2017-12-14 09:00:00 9.1 5 Oeste 21 Oeste 1.4 -- -- 100
2017-12-14 08:00:00 8.7 4 Norte 34 Noroeste 2.2 -- -- 100
2017-12-14 07:00:00 8.8 23 Noroeste 32 Noroeste 3.4 -- -- 100
2017-12-14 06:00:00 9.2 13 Oeste 27 Oeste 2.8 -- -- 100
2017-12-14 05:00:00 9.5 14 Noroeste 23 Noroeste 2.6 -- -- 100
2017-12-14 04:00:00 9.7 20 Oeste 36 Oeste 3.2 -- -- 100
2017-12-14 03:00:00 10 23 Noroeste 33 Noroeste 2 -- -- 100
2017-12-14 02:00:00 10.6 20 Noroeste 32 Noroeste 2.4 -- -- 100
2017-12-14 01:00:00 10.9 21 Noroeste 35 Noroeste 0.8 -- -- 100
2017-12-14 00:00:00 11.7 14 Noroeste 31 Noroeste 0 -- -- 94
2017-12-13 23:00:00 12.1 20 Noroeste 44 Noroeste 0.2 -- -- 91
2017-12-13 22:00:00 12.9 35 Noroeste 50 Norte 0 -- -- 85
2017-12-13 21:00:00 12.9 21 Noroeste 35 Norte 0 -- -- 80
2017-12-13 20:00:00 13 21 Norte 34 Noroeste 0 -- -- 80
2017-12-13 19:00:00 14.4 23 Oeste 44 Oeste 0 -- -- 74
2017-12-13 18:00:00 12.9 16 Noroeste 42 Oeste 0 -- -- 82
2017-12-13 17:00:00 13.7 22 Noroeste 49 Noroeste 0 -- -- 70
2017-12-13 16:00:00 14 12 Noroeste 30 Noroeste 0 -- -- 58
2017-12-13 15:00:00 14.1 17 Noroeste 32 Noroeste 0 -- -- 56
2017-12-13 14:00:00 13.5 12 Oeste 18 Oeste 0 -- -- 62
2017-12-13 13:00:00 13 5 Oeste 10 Sudoeste 0 -- -- 66
2017-12-13 12:00:00 10.1 4 Sudoeste 7 Sudoeste 0 -- -- 83
2017-12-13 11:00:00 7.7 0 Calma 8 Sudoeste 0 -- -- 92
2017-12-13 10:00:00 6.7 4 Sudeste 10 Sudoeste 0 -- -- 95
2017-12-13 09:00:00 5.4 5 Sudoeste 12 Sudeste 0 -- -- 95
2017-12-13 08:00:00 6.5 7 Sur 11 Nordeste 0 -- -- 93
2017-12-13 07:00:00 6.6 5 Sudoeste 14 Sudoeste 0 -- -- 90
2017-12-13 06:00:00 6 3 Sur 14 Nordeste 0 -- -- 93
2017-12-13 05:00:00 6.2 5 Sudoeste 9 Este 0 -- -- 87
2017-12-13 04:00:00 6.3 4 Este 9 Sur 0 -- -- 86
2017-12-13 03:00:00 6 0 Calma 11 Sudeste 0 -- -- 74
2017-12-13 02:00:00 5.4 2 Sudeste 6 Sur 0 -- -- 76
2017-12-13 01:00:00 5.1 4 Sur 13 Sudeste 0 -- -- 78
2017-12-13 00:00:00 4.7 9 Sudeste 13 Sudeste 0 -- -- 81
2017-12-12 23:00:00 5 4 Este 6 Este 0 -- -- 76
2017-12-12 22:00:00 5.8 0 Calma 9 Sudeste 0 -- -- 72
2017-12-12 21:00:00 6.2 2 Sudoeste 6 Sudeste 0 -- -- 69
2017-12-12 20:00:00 6.4 2 Este 14 Norte 0 -- -- 69
2017-12-12 19:00:00 6.1 9 Norte 18 Noroeste 0 -- -- 73
2017-12-12 18:00:00 6.9 13 Noroeste 22 Noroeste 0 -- -- 70
2017-12-12 17:00:00 7.6 9 Noroeste 32 Oeste 0 -- -- 67
2017-12-12 16:00:00 9.4 17 Noroeste 28 Oeste 0 -- -- 60
2017-12-12 15:00:00 9.5 18 Noroeste 28 Oeste 0 -- -- 65
2017-12-12 14:00:00 8 13 Norte 25 Noroeste 0 -- -- 78
2017-12-12 13:00:00 6.6 12 Noroeste 22 Noroeste 0 -- -- 82
2017-12-12 12:00:00 7.6 3 Sudoeste 7 Oeste 0 -- -- 84
2017-12-12 11:00:00 4.8 4 Noroeste 13 Noroeste 0 -- -- 95
2017-12-12 10:00:00 3.2 6 Oeste 17 Noroeste 0 -- -- 99
2017-12-12 09:00:00 2.3 11 Noroeste 17 Noroeste 0 -- -- 99
2017-12-12 08:00:00 2.4 3 Norte 5 Norte 0 -- -- 99
2017-12-12 07:00:00 2 5 Este 11 Noroeste 0.4 -- -- 99
2017-12-12 06:00:00 2.6 5 Este 15 Norte 2.4 -- -- 99
2017-12-12 05:00:00 3.1 8 Noroeste 21 Noroeste 0.6 -- -- 98
2017-12-12 04:00:00 3 11 Noroeste 33 Noroeste 0 -- -- 97
2017-12-12 03:00:00 3.4 2 Noroeste 17 Nordeste 0 -- -- 94
2017-12-12 02:00:00 3.1 6 Noroeste 13 Noroeste 0 -- -- 96
2017-12-12 01:00:00 3 7 Noroeste 23 Oeste 0 -- -- 95
2017-12-12 00:00:00 2.9 9 Norte 29 Norte 0 -- -- 96
2017-12-11 23:00:00 3 12 Norte 42 Noroeste 0 -- -- 94
2017-12-11 22:00:00 2.9 12 Noroeste 28 Noroeste 0 -- -- 94
2017-12-11 21:00:00 3.6 33 Oeste 48 Oeste 0.2 -- -- 89
2017-12-11 20:00:00 3.4 14 Noroeste 54 Oeste 0.4 -- -- 90
2017-12-11 19:00:00 3.3 24 Oeste 47 Oeste 0.2 -- -- 91
2017-12-11 18:00:00 3.7 32 Oeste 71 Oeste 0.2 -- -- 89
2017-12-11 17:00:00 3.7 27 Oeste 40 Oeste 0.4 -- -- 98
2017-12-11 16:00:00 3 19 Noroeste 46 Noroeste 2.6 -- -- 100
2017-12-11 15:00:00 3.7 10 Noroeste 38 Oeste 1.4 -- -- 100
2017-12-11 14:00:00 4.3 22 Noroeste 40 Noroeste 1.8 -- -- 99
2017-12-11 13:00:00 4.6 20 Noroeste 43 Noroeste 0.8 -- -- 97
2017-12-11 12:00:00 5.4 22 Noroeste 42 Norte 0.4 -- -- 93
2017-12-11 11:00:00 5.4 26 Noroeste 49 Oeste 0.4 -- -- 86
2017-12-11 10:00:00 6.4 21 Noroeste 41 Oeste 0 -- -- 76
2017-12-11 09:00:00 5.8 19 Noroeste 42 Oeste 0 -- -- 73
2017-12-11 08:00:00 6.2 30 Oeste 45 Oeste 0 -- -- 70
2017-12-11 07:00:00 5 18 Noroeste 39 Oeste 0 -- -- 87
2017-12-11 06:00:00 4.5 8 Norte 36 Oeste 1 -- -- 94
2017-12-11 05:00:00 5.1 21 Noroeste 38 Oeste 0.6 -- -- 93
2017-12-11 04:00:00 5.3 21 Noroeste 63 Oeste 1.2 -- -- 93
2017-12-11 03:00:00 5.3 41 Oeste 78 Oeste 2.6 -- -- 97
2017-12-11 02:00:00 7.1 19 Noroeste 31 Noroeste 0.4 -- -- 99
2017-12-11 01:00:00 7.1 23 Noroeste 39 Noroeste 4.4 -- -- 100
2017-12-11 00:00:00 7 17 Norte 58 Noroeste 9 -- -- 100
2017-12-10 23:00:00 8.9 49 Noroeste 84 Norte 1.6 -- -- 93
2017-12-10 22:00:00 13 24 Sudoeste 63 Sudoeste 0 -- -- 76
2017-12-10 21:00:00 9.9 11 Nordeste 21 Sudoeste 0.2 -- -- 99
2017-12-10 20:00:00 9.8 8 Sudoeste 14 Sudoeste 0.4 -- -- 100
2017-12-10 19:00:00 9.9 4 Sudeste 28 Sudeste 0 -- -- 100
2017-12-10 18:00:00 10.1 26 Sudeste 36 Este 0.4 -- -- 100
2017-12-10 17:00:00 10.4 10 Norte 28 Oeste 5.2 -- -- 100
2017-12-10 16:00:00 10.9 12 Noroeste 18 Noroeste 1.6 -- -- 99
2017-12-10 15:00:00 11.4 9 Sudoeste 12 Sur 0.8 -- -- 97
2017-12-10 14:00:00 12.4 6 Sudoeste 20 Norte 0.8 -- -- 91
2017-12-10 13:00:00 14.3 8 Noroeste 40 Oeste 0.4 -- -- 73
2017-12-10 12:00:00 15.4 7 Nordeste 44 Oeste 0 -- -- 64
2017-12-10 11:00:00 15.6 11 Sudoeste 36 Oeste 0 -- -- 63
2017-12-10 10:00:00 15.5 12 Noroeste 31 Oeste 0 -- -- 68
2017-12-10 09:00:00 16.5 23 Noroeste 63 Oeste 0 -- -- 57
2017-12-10 08:00:00 17.7 24 Oeste 63 Sudoeste 0 -- -- 50
2017-12-10 07:00:00 17 29 Oeste 51 Oeste 0 -- -- 54
2017-12-10 06:00:00 16.8 20 Noroeste 48 Sudoeste 0 -- -- 52
2017-12-10 05:00:00 15.3 10 Noroeste 38 Sudoeste 0 -- -- 57
2017-12-10 04:00:00 14.8 10 Noroeste 23 Noroeste 0 -- -- 61
2017-12-10 03:00:00 14.1 12 Noroeste 28 Noroeste 0 -- -- 65
2017-12-10 02:00:00 13.3 15 Noroeste 34 Noroeste 0 -- -- 70
2017-12-10 01:00:00 14 22 Noroeste 36 Oeste 0 -- -- 67
2017-12-10 00:00:00 13.6 17 Noroeste 36 Noroeste 0 -- -- 69
2017-12-09 23:00:00 13.2 24 Noroeste 37 Noroeste 0 -- -- 75
2017-12-09 22:00:00 12.8 22 Noroeste 36 Noroeste 0 -- -- 78
2017-12-09 21:00:00 12.3 24 Noroeste 40 Noroeste 0.2 -- -- 84
2017-12-09 20:00:00 12.2 28 Noroeste 40 Noroeste 0 -- -- 87
2017-12-09 19:00:00 11.8 23 Noroeste 42 Noroeste 0 -- -- 92
2017-12-09 18:00:00 10.3 19 Noroeste 41 Noroeste 0 -- -- 100
2017-12-09 17:00:00 10.3 18 Noroeste 33 Noroeste 0.2 -- -- 100
2017-12-09 16:00:00 8.6 10 Oeste 18 Oeste 0.4 -- -- 100
2017-12-09 15:00:00 7.5 5 Sur 10 Sudoeste 0.8 -- -- 100
2017-12-09 14:00:00 7 0 Calma 10 Este 0.8 -- -- 100
2017-12-09 13:00:00 6.7 7 Sudeste 10 Sudeste 1 -- -- 100
2017-12-09 12:00:00 7.1 5 Este 8 Sur 0.4 -- -- 100
2017-12-09 11:00:00 6.7 4 Este 9 Este 0.2 -- -- 100
2017-12-09 10:00:00 6 0 Calma 4 Sudoeste 0 -- -- 100
2017-12-09 09:00:00 5.4 0 Calma 5 Este 0 -- -- 100
2017-12-09 08:00:00 5.3 4 Sudeste 5 Sudeste 0 -- -- 100
2017-12-09 07:00:00 5.3 3 Noroeste 6 Oeste 0 -- -- 100
2017-12-09 06:00:00 5.4 7 Oeste 8 Oeste 0 -- -- 100
2017-12-09 05:00:00 5.5 4 Oeste 6 Sudoeste 0 -- -- 100
2017-12-09 04:00:00 5.7 3 Noroeste 5 Oeste 0 -- -- 100
2017-12-09 03:00:00 5.7 0 Calma 13 Sudoeste 0 -- -- 100
2017-12-09 02:00:00 6 10 Sudoeste 14 Oeste 0.2 -- -- 100
2017-12-09 01:00:00 6.2 7 Noroeste 10 Oeste 0.2 -- -- 100
2017-12-09 00:00:00 6.2 6 Oeste 10 Oeste 0.4 -- -- 100
2017-12-08 23:00:00 6.2 6 Noroeste 15 Oeste 0.2 -- -- 100
2017-12-08 22:00:00 6.2 13 Oeste 21 Sudoeste 0.2 -- -- 100
2017-12-08 21:00:00 6.6 8 Oeste 16 Oeste 0.4 -- -- 100
2017-12-08 20:00:00 6.6 9 Oeste 15 Oeste 0.8 -- -- 100
2017-12-08 19:00:00 6.6 5 Noroeste 9 Noroeste 0 -- -- 100
2017-12-08 18:00:00 6.6 3 Norte 20 Oeste 0.4 -- -- 100
2017-12-08 17:00:00 6.6 14 Oeste 22 Oeste 0.2 -- -- 100
2017-12-08 16:00:00 6.8 18 Oeste 32 Oeste 0.4 -- -- 100
2017-12-08 15:00:00 7.3 23 Oeste 28 Sudoeste 0.8 -- -- 100
2017-12-08 14:00:00 8.8 12 Oeste 19 Oeste 1.2 -- -- 100
2017-12-08 13:00:00 8.5 14 Oeste 21 Oeste 1.2 -- -- 100
2017-12-08 12:00:00 9 14 Oeste 24 Oeste 1.2 -- -- 100
2017-12-08 11:00:00 9 12 Oeste 24 Oeste 1 -- -- 100
2017-12-08 10:00:00 9.3 17 Oeste 26 Noroeste 1.8 -- -- 100
2017-12-08 09:00:00 9.8 18 Noroeste 27 Noroeste 1.6 -- -- 100
2017-12-08 08:00:00 10.1 15 Oeste 22 Oeste 0.8 -- -- 100
2017-12-08 07:00:00 10.2 15 Oeste 23 Noroeste 0.8 -- -- 100
2017-12-08 06:00:00 10.4 17 Noroeste 26 Noroeste 0.4 -- -- 100
2017-12-08 05:00:00 10.4 17 Noroeste 35 Noroeste 0.6 -- -- 100
2017-12-08 04:00:00 10.3 18 Oeste 29 Noroeste 1.6 -- -- 100
2017-12-08 03:00:00 10.5 12 Noroeste 26 Oeste 0.2 -- -- 97
2017-12-08 02:00:00 11.4 16 Noroeste 27 Oeste 0 -- -- 90
2017-12-08 01:00:00 11.6 7 Oeste 20 Noroeste 0 -- -- 90
2017-12-08 00:00:00 11.7 10 Noroeste 21 Noroeste 0 -- -- 89
2017-12-07 23:00:00 11.4 3 Oeste 8 Norte 0 -- -- 91
2017-12-07 22:00:00 10.9 3 Sur 6 Sudeste 0 -- -- 92
2017-12-07 21:00:00 10.8 3 Nordeste 11 Oeste 0.2 -- -- 93
2017-12-07 20:00:00 10.8 4 Noroeste 8 Norte 0 -- -- 91
2017-12-07 19:00:00 10.6 3 Sudoeste 13 Oeste 0.4 -- -- 92
2017-12-07 18:00:00 10.5 4 Sur 23 Sudeste 0.2 -- -- 91
2017-12-07 17:00:00 11.2 8 Nordeste 24 Oeste 0.2 -- -- 89
2017-12-07 16:00:00 14.5 0 Calma 6 Sudoeste 0 -- -- 67
2017-12-07 15:00:00 14.7 0 Calma 7 Sudoeste 0 -- -- 66
2017-12-07 14:00:00 12.7 3 Oeste 8 Sudoeste 0 -- -- 67
2017-12-07 13:00:00 12 3 Sudoeste 14 Sur 0 -- -- 65
2017-12-07 12:00:00 11 3 Este 16 Este 0 -- -- 70
2017-12-07 11:00:00 9.1 7 Sudoeste 12 Sudoeste 0 -- -- 57
2017-12-07 10:00:00 8.1 0 Calma 18 Este 0 -- -- 62
2017-12-07 09:00:00 7.9 10 Sudeste 14 Este 0 -- -- 56
2017-12-07 08:00:00 7.4 2 Este 7 Este 0 -- -- 55
2017-12-07 07:00:00 7.2 3 Norte 13 Oeste 0 -- -- 56
2017-12-07 06:00:00 6.6 6 Sudoeste 13 Oeste 0 -- -- 61
2017-12-07 05:00:00 6.9 4 Sudeste 8 Sudoeste 0 -- -- 57
2017-12-07 04:00:00 6.5 4 Sudoeste 11 Sudeste 0 -- -- 60
2017-12-07 03:00:00 6 3 Nordeste 13 Sudeste 0 -- -- 66
2017-12-07 02:00:00 6.4 0 Calma 9 Sudoeste 0 -- -- 59
2017-12-07 01:00:00 6.2 6 Sudeste 9 Este 0 -- -- 63
2017-12-07 00:00:00 6.3 3 Oeste 6 Sudoeste 0 -- -- 62
2017-12-06 23:00:00 5.8 4 Sudeste 11 Sudeste 0 -- -- 63
2017-12-06 22:00:00 5.8 0 Calma 13 Sudeste 0 -- -- 66
2017-12-06 21:00:00 5.7 5 Este 10 Sur 0 -- -- 66
2017-12-06 20:00:00 5.6 5 Este 9 Este 0 -- -- 68
2017-12-06 19:00:00 6 5 Sudoeste 14 Este 0 -- -- 66
2017-12-06 18:00:00 7.5 7 Sudeste 13 Sudeste 0 -- -- 57
2017-12-06 17:00:00 8.6 6 Sudeste 7 Este 0 -- -- 54
2017-12-06 16:00:00 11 0 Calma 7 Oeste 0 -- -- 51
2017-12-06 15:00:00 12.4 3 Oeste 9 Sur 0 -- -- 49
2017-12-06 14:00:00 12.5 3 Sudoeste 8 Sudoeste 0 -- -- 50
2017-12-06 13:00:00 10.9 0 Calma 5 Sudoeste 0 -- -- 55
2017-12-06 12:00:00 9.8 4 Sudeste 7 Sudeste 0 -- -- 48
2017-12-06 11:00:00 7.6 2 Sudoeste 5 Sudoeste 0 -- -- 59
2017-12-06 10:00:00 4.4 0 Calma 6 Este 0.4 -- -- 62
2017-12-06 09:00:00 3 3 Este 5 Este 0 -- -- 64
2017-12-06 08:00:00 3 0 Calma 3 Este 0 -- -- 66
2017-12-06 07:00:00 3 0 Calma 4 Este 0 -- -- 69
2017-12-06 06:00:00 3 0 Calma 3 Sudoeste 0 -- -- 71
2017-12-06 05:00:00 2.7 0 Calma 8 Este 0 -- -- 71
2017-12-06 04:00:00 2.8 0 Calma -- -- 0 -- -- 76
2017-12-06 03:00:00 3.2 0 Calma 3 Oeste 0 -- -- 73
2017-12-06 02:00:00 3.2 2 Oeste 3 Oeste 0 -- -- 76
2017-12-06 01:00:00 3.4 0 Calma 4 Oeste 0 -- -- 78
2017-12-06 00:00:00 3.4 2 Oeste 3 Oeste 0 -- -- 79
2017-12-05 23:00:00 3.4 0 Calma 3 Sudoeste 0 -- -- 80
2017-12-05 22:00:00 3.4 0 Calma 2 Nordeste 0 -- -- 82
2017-12-05 21:00:00 3.6 2 Sudoeste 6 Sudeste 0 -- -- 81
2017-12-05 20:00:00 4.5 0 Calma 0 Calma 0 -- -- 78
2017-12-05 19:00:00 5.1 0 Calma 6 Este 0 -- -- 73
2017-12-05 18:00:00 6.1 4 Este 8 Sudeste 0 -- -- 68
2017-12-05 17:00:00 7.9 3 Sudeste 7 Sudeste 0 -- -- 59
2017-12-05 16:00:00 10.4 0 Calma 8 Sur 0 -- -- 56
2017-12-05 15:00:00 10.3 4 Sudoeste 7 Oeste 0 -- -- 58
2017-12-05 14:00:00 10.3 2 Sudoeste 7 Oeste 0 -- -- 60
2017-12-05 13:00:00 9.5 2 Oeste 6 Sudoeste 0 -- -- 63
2017-12-05 12:00:00 8 2 Sudoeste 6 Sudoeste 0 -- -- 69
2017-12-05 11:00:00 5.1 2 Sudoeste 6 Sudeste 0 -- -- 79
2017-12-05 10:00:00 1.8 4 Este 8 Este 0 -- -- 93
2017-12-05 09:00:00 1 5 Este 10 Sudeste 0 -- -- 93
2017-12-05 08:00:00 1.1 8 Sudeste 10 Sudeste 0 -- -- 94
2017-12-05 07:00:00 1.2 5 Este 10 Este 0 -- -- 95
2017-12-05 06:00:00 1.5 2 Sudeste 8 Este 0 -- -- 96
2017-12-05 05:00:00 1.8 3 Este 9 Este 0 -- -- 93
2017-12-05 04:00:00 2.5 7 Sudeste 10 Sur 0 -- -- 92
2017-12-05 03:00:00 2.9 8 Sudeste 10 Sur 0 -- -- 91
2017-12-05 02:00:00 3.5 8 Sudeste 12 Sudeste 0 -- -- 88
2017-12-05 01:00:00 3.8 9 Sudeste 14 Sudeste 0 -- -- 88
2017-12-05 00:00:00 4.1 8 Sudeste 15 Sur 0 -- -- 88
2017-12-04 23:00:00 4.6 8 Sudeste 19 Sudeste 0 -- -- 86
2017-12-04 22:00:00 4.7 11 Sudeste 18 Sudeste 0 -- -- 88
2017-12-04 21:00:00 5.7 12 Sudeste 19 Sudeste 0 -- -- 82
2017-12-04 20:00:00 5.3 9 Sudeste 15 Sudeste 0 -- -- 87
2017-12-04 19:00:00 6.5 7 Sudeste 9 Sudeste 0 -- -- 82
2017-12-04 18:00:00 7 8 Sudeste 15 Sudeste 0 -- -- 88
2017-12-04 17:00:00 7.7 12 Sudeste 17 Sudeste 0 -- -- 84
2017-12-04 16:00:00 10.8 9 Sudeste 17 Este 0 -- -- 68
2017-12-04 15:00:00 11.9 8 Sudeste 13 Sudeste 0 -- -- 70
2017-12-04 14:00:00 11 7 Sur 13 Sudeste 0 -- -- 78
2017-12-04 13:00:00 10.3 6 Sur 10 Sudeste 0 -- -- 76
2017-12-04 12:00:00 8.5 2 Sudeste 6 Este 0 -- -- 87
2017-12-04 11:00:00 6.4 2 Noroeste 9 Nordeste 0 -- -- 89
2017-12-04 10:00:00 4.9 2 Norte 5 Sudeste 0 -- -- 90
2017-12-04 09:00:00 4.4 3 Sudeste 11 Sudeste 0 -- -- 92
2017-12-04 08:00:00 4.2 5 Sudeste 12 Sudeste 0 -- -- 93
2017-12-04 07:00:00 4.4 5 Este 7 Este 0 -- -- 91
2017-12-04 06:00:00 4.6 0 Calma 3 Este 0 -- -- 90
2017-12-04 05:00:00 4.5 3 Oeste 8 Sudoeste 0 -- -- 93
2017-12-04 04:00:00 4.1 6 Sudoeste 8 Sudoeste 0 -- -- 96
2017-12-04 03:00:00 3.9 3 Este 10 Este 0 -- -- 96
2017-12-04 02:00:00 5.1 0 Calma 6 Noroeste 0 -- -- 88
2017-12-04 01:00:00 5.2 0 Calma 5 Nordeste 0 -- -- 89
2017-12-04 00:00:00 5.3 4 Nordeste 6 Nordeste 0 -- -- 87
2017-12-03 23:00:00 5.8 4 Oeste 8 Noroeste 0 -- -- 84
2017-12-03 22:00:00 5.6 4 Oeste 12 Noroeste 0 -- -- 87
2017-12-03 21:00:00 5.8 7 Noroeste 13 Oeste 0 -- -- 84
2017-12-03 20:00:00 5.7 6 Noroeste 11 Oeste 0 -- -- 86
2017-12-03 19:00:00 5.6 5 Oeste 8 Sudoeste 0 -- -- 86
2017-12-03 18:00:00 6 4 Oeste 5 Oeste 0 -- -- 85
2017-12-03 17:00:00 6.3 2 Sudoeste 10 Sudoeste 0 -- -- 86
2017-12-03 16:00:00 7.1 4 Sudeste 8 Sudeste 0 -- -- 83
2017-12-03 15:00:00 7.1 5 Noroeste 10 Norte 0 -- -- 87
2017-12-03 14:00:00 6.8 6 Noroeste 11 Oeste 0 -- -- 92
2017-12-03 13:00:00 5.7 2 Noroeste 9 Noroeste 0 -- -- 97
2017-12-03 12:00:00 4.6 6 Oeste 15 Sudoeste 0 -- -- 100
2017-12-03 11:00:00 3.7 3 Oeste 9 Sudoeste 0 -- -- 100
2017-12-03 10:00:00 2.8 2 Sudeste 6 Sudoeste 0 -- -- 100
2017-12-03 09:00:00 2.1 2 Oeste 6 Sudoeste 0 -- -- 100
2017-12-03 08:00:00 2.1 2 Sudoeste 10 Sudeste 0.2 -- -- 100
2017-12-03 07:00:00 2.6 4 Noroeste 9 Noroeste 0.2 -- -- 100
2017-12-03 06:00:00 2 5 Noroeste 8 Oeste 0 -- -- 100
2017-12-03 05:00:00 2 5 Oeste 9 Oeste 0 -- -- 100
2017-12-03 04:00:00 1.9 0 Calma 5 Noroeste 0 -- -- 100
2017-12-03 03:00:00 2 0 Calma 5 Nordeste 0 -- -- 100
2017-12-03 02:00:00 2.4 0 Calma 9 Sudoeste 0.4 -- -- 100
2017-12-03 01:00:00 2.6 8 Sudoeste 9 Sudoeste 1.6 -- -- 100
2017-12-03 00:00:00 2.6 2 Norte 13 Oeste 0 -- -- 100
2017-12-02 23:00:00 2.7 11 Oeste 20 Oeste 0.2 -- -- 100
2017-12-02 22:00:00 2.5 4 Nordeste 9 Nordeste 0 -- -- 100
2017-12-02 21:00:00 2.6 8 Sur 14 Nordeste 0.8 -- -- 100
2017-12-02 20:00:00 2.5 2 Nordeste 13 Este 0.8 -- -- 100
2017-12-02 19:00:00 2.7 8 Este 15 Sudoeste 0.4 -- -- 100
2017-12-02 18:00:00 2.6 5 Este 13 Nordeste 0.4 -- -- 100
2017-12-02 17:00:00 3 9 Norte 20 Nordeste 1 -- -- 100
2017-12-02 16:00:00 3.3 5 Nordeste 27 Oeste 1.2 -- -- 100
2017-12-02 15:00:00 3.2 10 Nordeste 18 Nordeste 0.8 -- -- 100
2017-12-02 14:00:00 3 9 Oeste 23 Oeste 1.8 -- -- 100
2017-12-02 13:00:00 3.6 4 Norte 10 Sudoeste 0 -- -- 100
2017-12-02 12:00:00 2.6 4 Este 13 Nordeste 1.6 -- -- 100
2017-12-02 11:00:00 2.7 9 Este 33 Sudoeste 1.4 -- -- 100
2017-12-02 10:00:00 1.9 15 Nordeste 25 Nordeste 0.4 -- -- 100
2017-12-02 09:00:00 1.6 7 Norte 26 Noroeste 0.4 -- -- 100
2017-12-02 08:00:00 1.5 8 Oeste 16 Oeste 0.2 -- -- 100
2017-12-02 07:00:00 1.6 5 Norte 18 Oeste 0.2 -- -- 100
2017-12-02 06:00:00 1.4 8 Norte 15 Oeste 0 -- -- 100
2017-12-02 05:00:00 1.1 6 Norte 18 Sudoeste 1 -- -- 100
2017-12-02 04:00:00 1.4 9 Norte 19 Oeste 0.6 -- -- 100
2017-12-02 03:00:00 1.4 13 Noroeste 20 Noroeste 0.8 -- -- 100
2017-12-02 02:00:00 1.1 6 Sudoeste 10 Nordeste 0 -- -- 100
2017-12-02 01:00:00 0.6 9 Nordeste 26 Oeste 1.8 -- -- 100
2017-12-02 00:00:00 1.3 0 Calma 18 Oeste 0.4 -- -- 100
2017-12-01 23:00:00 1.5 5 Sudoeste 24 Oeste 0.6 -- -- 99
2017-12-01 22:00:00 1.9 20 Noroeste 36 Noroeste 0.8 -- -- 98
2017-12-01 21:00:00 1.9 14 Oeste 23 Oeste 0.6 -- -- 97
2017-12-01 20:00:00 2.8 21 Oeste 49 Oeste 0.8 -- -- 92
2017-12-01 19:00:00 2.8 20 Oeste 33 Oeste 0.8 -- -- 91
2017-12-01 18:00:00 3 20 Oeste 46 Oeste 0.6 -- -- 88
2017-12-01 17:00:00 4.4 14 Noroeste 30 Oeste 0 -- -- 78
2017-12-01 16:00:00 4.1 19 Oeste 38 Noroeste 0.8 -- -- 81
2017-12-01 15:00:00 4.6 2 Noroeste 25 Oeste 0.4 -- -- 80
2017-12-01 14:00:00 3.4 7 Norte 34 Nordeste 0.8 -- -- 89
2017-12-01 13:00:00 5.1 15 Noroeste 40 Nordeste 0 -- -- 68
2017-12-01 12:00:00 4.5 19 Norte 40 Norte 0 -- -- 85
2017-12-01 11:00:00 4.2 13 Norte 38 Noroeste 1.4 -- -- 94
2017-12-01 10:00:00 3.6 18 Norte 46 Norte 2.6 -- -- 98
2017-12-01 09:00:00 4.6 12 Noroeste 74 Noroeste 3.2 -- -- 99
2017-12-01 08:00:00 4.1 40 Noroeste 69 Norte 5.6 -- -- 99
2017-12-01 07:00:00 4.6 34 Oeste 66 Oeste 2.2 -- -- 98
2017-12-01 06:00:00 4.7 39 Oeste 56 Oeste 2.2 -- -- 98
2017-12-01 05:00:00 4.5 17 Noroeste 59 Oeste 1.4 -- -- 98
2017-12-01 04:00:00 4.5 25 Noroeste 37 Oeste 0.2 -- -- 98
2017-12-01 03:00:00 4.4 21 Oeste 46 Oeste 0 -- -- 95
2017-12-01 02:00:00 4.2 30 Oeste 55 Oeste 1.2 -- -- 98
2017-12-01 01:00:00 4 21 Noroeste 53 Oeste 1.6 -- -- 99
2017-12-01 00:00:00 4.1 24 Noroeste 41 Oeste 0.4 -- -- 99
2017-11-30 23:00:00 4 18 Noroeste 48 Oeste 0.4 -- -- 98
2017-11-30 22:00:00 4.1 18 Noroeste 48 Oeste 0.6 -- -- 99
2017-11-30 21:00:00 3.9 15 Noroeste 30 Oeste 0.6 -- -- 100
2017-11-30 20:00:00 3.8 15 Noroeste 33 Noroeste 0.4 -- -- 100
2017-11-30 19:00:00 4 11 Norte 22 Noroeste 0 -- -- 97
2017-11-30 18:00:00 3.8 16 Noroeste 32 Noroeste 0.2 -- -- 98
2017-11-30 17:00:00 4.2 13 Noroeste 38 Norte 0.2 -- -- 99
2017-11-30 16:00:00 4.9 6 Noroeste 10 Oeste 0 -- -- 99
2017-11-30 15:00:00 4.2 4 Sudeste 15 Norte 1 -- -- 100
2017-11-30 14:00:00 4.1 7 Norte 15 Norte 0.4 -- -- 100
2017-11-30 13:00:00 3.5 2 Norte 18 Noroeste 1 -- -- 100
2017-11-30 12:00:00 3.2 12 Noroeste 19 Norte 0.6 -- -- 100
2017-11-30 11:00:00 3.2 5 Norte 15 Noroeste 0.2 -- -- 100
2017-11-30 10:00:00 2.6 9 Oeste 12 Oeste 0.4 -- -- 100
2017-11-30 09:00:00 2.1 3 Nordeste 7 Oeste 0 -- -- 100
2017-11-30 08:00:00 1.8 6 Noroeste 17 Norte 0 -- -- 100
2017-11-30 07:00:00 1.5 10 Oeste 14 Noroeste 0 -- -- 100
2017-11-30 06:00:00 1.7 4 Oeste 6 Noroeste 0 -- -- 100
2017-11-30 05:00:00 1.6 3 Noroeste 8 Noroeste 0 -- -- 100
2017-11-30 04:00:00 1.4 3 Oeste 14 Noroeste 0.2 -- -- 100
2017-11-30 03:00:00 1.4 9 Noroeste 18 Oeste 0 -- -- 100
2017-11-30 02:00:00 1.5 15 Oeste 19 Oeste 0.2 -- -- 100
2017-11-30 01:00:00 0.9 5 Nordeste 8 Este 0 -- -- 100
2017-11-30 00:00:00 1.2 6 Sudeste 12 Este 0 -- -- 100
2017-11-29 23:00:00 1.2 9 Sur 14 Sudoeste 1.6 -- -- 100
2017-11-29 22:00:00 1.4 4 Noroeste 14 Sudoeste 0.8 -- -- 100
2017-11-29 21:00:00 1.4 2 Este 16 Sudoeste 3 -- -- 100
2017-11-29 20:00:00 1.9 2 Norte 7 Sudoeste 0.2 -- -- 100
2017-11-29 19:00:00 2 4 Nordeste 15 Oeste 0.4 -- -- 100
2017-11-29 18:00:00 2.2 4 Norte 22 Sudoeste 2.6 -- -- 100
2017-11-29 17:00:00 3.7 7 Norte 22 Norte 0.8 -- -- 100
2017-11-29 16:00:00 3.7 4 Norte 16 Oeste 1.2 -- -- 100
2017-11-29 15:00:00 4.2 5 Este 16 Nordeste 1.2 -- -- 100
2017-11-29 14:00:00 3.5 16 Oeste 29 Noroeste 1.6 -- -- 100
2017-11-29 13:00:00 4.7 4 Noroeste 12 Nordeste 0 -- -- 100
2017-11-29 12:00:00 3.3 8 Norte 19 Oeste 1.4 -- -- 100
2017-11-29 11:00:00 3.6 7 Este 12 Oeste 1.4 -- -- 100
2017-11-29 10:00:00 3.1 12 Oeste 21 Sudoeste 2.4 -- -- 100
2017-11-29 09:00:00 3.4 6 Oeste 21 Oeste 3 -- -- 100
2017-11-29 08:00:00 4.2 8 Noroeste 27 Oeste 2.4 -- -- 100
2017-11-29 07:00:00 4.8 13 Noroeste 20 Noroeste 1 -- -- 100
2017-11-29 06:00:00 5 13 Noroeste 24 Noroeste 0.2 -- -- 100
2017-11-29 05:00:00 5.1 11 Noroeste 22 Noroeste 0.4 -- -- 100
2017-11-29 04:00:00 5.1 11 Noroeste 15 Noroeste 0 -- -- 100
2017-11-29 03:00:00 5.3 5 Noroeste 12 Norte 0 -- -- 99
2017-11-29 02:00:00 5.9 7 Noroeste 11 Oeste 0 -- -- 99
2017-11-29 01:00:00 5.9 7 Noroeste 13 Noroeste 0 -- -- 99
2017-11-29 00:00:00 5.9 5 Noroeste 14 Sudoeste 0.4 -- -- 100
2017-11-28 23:00:00 6.1 8 Oeste 22 Noroeste 2 -- -- 100
2017-11-28 22:00:00 6.1 8 Oeste 16 Noroeste 1 -- -- 100
2017-11-28 21:00:00 6.4 8 Oeste 21 Oeste 0.4 -- -- 100
2017-11-28 20:00:00 6.8 13 Noroeste 26 Noroeste 0.2 -- -- 99
2017-11-28 19:00:00 6.9 14 Noroeste 23 Oeste 0.6 -- -- 96
2017-11-28 18:00:00 7.5 13 Noroeste 21 Noroeste 0 -- -- 88
2017-11-28 17:00:00 9 20 Noroeste 28 Noroeste 0 -- -- 72
2017-11-28 16:00:00 10.3 12 Norte 37 Oeste 0 -- -- 62
2017-11-28 15:00:00 11.7 28 Oeste 38 Noroeste 0 -- -- 56
2017-11-28 14:00:00 11.6 22 Oeste 32 Oeste 0 -- -- 55
2017-11-28 13:00:00 9.8 7 Noroeste 33 Norte 0 -- -- 62
2017-11-28 12:00:00 8.5 17 Noroeste 22 Noroeste 0 -- -- 69
2017-11-28 11:00:00 7.5 5 Oeste 10 Noroeste 0 -- -- 71
2017-11-28 10:00:00 5 6 Oeste 10 Oeste 0 -- -- 77
2017-11-28 09:00:00 3.2 4 Sudoeste 6 Oeste 0 -- -- 84
2017-11-28 08:00:00 3.6 0 Calma 6 Oeste 0 -- -- 81
2017-11-28 07:00:00 3.9 0 Calma 6 Oeste 0 -- -- 80
2017-11-28 06:00:00 3.6 4 Oeste 6 Oeste 0 -- -- 86
2017-11-28 05:00:00 3.7 3 Oeste 6 Sudoeste 0 -- -- 89
2017-11-28 04:00:00 3 0 Calma 5 Este 0 -- -- 90
2017-11-28 03:00:00 3.3 0 Calma 4 Sudoeste 0 -- -- 91
2017-11-28 02:00:00 3.2 0 Calma 5 Sudeste 0 -- -- 93
2017-11-28 01:00:00 3.5 3 Noroeste 9 Sudoeste 0 -- -- 94
2017-11-28 00:00:00 4.1 0 Calma 4 Noroeste 0 -- -- 91
2017-11-27 23:00:00 4.1 0 Calma 5 Este 0 -- -- 91
2017-11-27 22:00:00 4.5 0 Calma 9 Oeste 0 -- -- 89
2017-11-27 21:00:00 4.3 6 Oeste 8 Oeste 0 -- -- 93
2017-11-27 20:00:00 5.2 4 Sudeste 5 Oeste 0 -- -- 89
2017-11-27 19:00:00 5.9 2 Noroeste 9 Sudoeste 0 -- -- 86
2017-11-27 18:00:00 6.4 8 Sudoeste 14 Oeste 0 -- -- 86
2017-11-27 17:00:00 7.3 10 Oeste 19 Oeste 0 -- -- 85
2017-11-27 16:00:00 8.9 10 Oeste 17 Oeste 0 -- -- 76
2017-11-27 15:00:00 9.7 10 Oeste 15 Oeste 0 -- -- 72
2017-11-27 14:00:00 9.3 11 Noroeste 15 Noroeste 0 -- -- 71
2017-11-27 13:00:00 10.2 5 Oeste 10 Oeste 0 -- -- 65
2017-11-27 12:00:00 8.9 4 Sudoeste 5 Sudoeste 0 -- -- 67
2017-11-27 11:00:00 6.3 2 Sudoeste 4 Sudoeste 0 -- -- 76
2017-11-27 10:00:00 3.2 0 Calma 2 Este 0 -- -- 90
2017-11-27 09:00:00 2.3 0 Calma 5 Nordeste 0 -- -- 94
2017-11-27 08:00:00 2.4 0 Calma 3 Nordeste 0 -- -- 95
2017-11-27 07:00:00 2.4 0 Calma 7 Sudeste 0 -- -- 94
2017-11-27 06:00:00 2.5 6 Sudeste 10 Sudeste 0 -- -- 96
2017-11-27 05:00:00 2.8 2 Nordeste 7 Nordeste 0 -- -- 97
2017-11-27 04:00:00 2.5 0 Calma 9 Este 0 -- -- 98
2017-11-27 03:00:00 2.7 3 Sudeste 8 Este 0 -- -- 98
2017-11-27 02:00:00 3.2 2 Este 4 Este 0 -- -- 97
2017-11-27 01:00:00 3.4 0 Calma 6 Este 0 -- -- 97
2017-11-27 00:00:00 4.1 2 Sudeste 4 Sudeste 0 -- -- 94
2017-11-26 23:00:00 4.1 0 Calma 6 Sudoeste 0 -- -- 95
2017-11-26 22:00:00 4.4 4 Este 8 Oeste 0 -- -- 94
2017-11-26 21:00:00 4.7 6 Oeste 15 Sudeste 0 -- -- 92
2017-11-26 20:00:00 5.4 6 Sudeste 12 Sudeste 0 -- -- 89
2017-11-26 19:00:00 6.3 10 Sudeste 15 Sudeste 0 -- -- 86
2017-11-26 18:00:00 7 8 Sudeste 22 Este 0 -- -- 84
2017-11-26 17:00:00 7.8 9 Sudeste 27 Sudeste 0 -- -- 81
2017-11-26 16:00:00 10.1 10 Sudeste 24 Sudeste 0 -- -- 67
2017-11-26 15:00:00 10.4 8 Sudeste 19 Este 0 -- -- 65
2017-11-26 14:00:00 10.4 9 Sudeste 14 Sudeste 0 -- -- 67
2017-11-26 13:00:00 10.2 4 Sur 8 Sudoeste 0 -- -- 72
2017-11-26 12:00:00 8 5 Sudoeste 8 Oeste 0 -- -- 78
2017-11-26 11:00:00 5.8 3 Este 7 Sudoeste 0 -- -- 88
2017-11-26 10:00:00 3.3 2 Nordeste 4 Nordeste 0 -- -- 92
2017-11-26 09:00:00 2.4 5 Sudoeste 8 Sudoeste 0 -- -- 99
2017-11-26 08:00:00 1.7 5 Este 9 Este 0 -- -- 98
2017-11-26 07:00:00 2.4 0 Calma 9 Nordeste 0 -- -- 99
2017-11-26 06:00:00 3 0 Calma 3 Sudoeste 0 -- -- 98
2017-11-26 05:00:00 2.8 0 Calma 5 Norte 0 -- -- 99
2017-11-26 04:00:00 3 0 Calma 5 Este 0 -- -- 98
2017-11-26 03:00:00 3.5 4 Este 4 Sudeste 0 -- -- 96
2017-11-26 02:00:00 3.8 3 Sudoeste 6 Sudoeste 0 -- -- 97
2017-11-26 01:00:00 4.1 2 Oeste 8 Oeste 0 -- -- 99
2017-11-26 00:00:00 4.3 3 Sudoeste 11 Sudoeste 0.2 -- -- 100
2017-11-25 23:00:00 4.5 3 Este 8 Sudeste 0 -- -- 99
2017-11-25 22:00:00 4.6 3 Nordeste 8 Este 0 -- -- 99
2017-11-25 21:00:00 5.3 0 Calma 12 Sudoeste 0.4 -- -- 98
2017-11-25 20:00:00 5.4 4 Oeste 5 Sudoeste 0 -- -- 99
2017-11-25 19:00:00 5.4 4 Nordeste 10 Sudeste 0 -- -- 99
2017-11-25 18:00:00 5.8 9 Sudeste 20 Sudoeste 0 -- -- 98
2017-11-25 17:00:00 6.4 3 Oeste 10 Sudoeste 0 -- -- 95
2017-11-25 16:00:00 6.6 9 Sudoeste 13 Sudoeste 0.6 -- -- 97
2017-11-25 15:00:00 6.8 8 Oeste 21 Oeste 0.8 -- -- 97
2017-11-25 14:00:00 6.8 13 Oeste 19 Oeste 0.4 -- -- 97
2017-11-25 13:00:00 7.4 7 Oeste 16 Oeste 0.4 -- -- 98
2017-11-25 12:00:00 7.3 11 Oeste 19 Oeste 0.4 -- -- 98
2017-11-25 11:00:00 7.2 11 Oeste 20 Oeste 0.4 -- -- 100
2017-11-25 10:00:00 7 14 Oeste 22 Oeste 1 -- -- 100
2017-11-25 09:00:00 7.1 6 Norte 25 Sudoeste 0.2 -- -- 100
2017-11-25 08:00:00 7.2 14 Oeste 28 Norte 1.4 -- -- 100
2017-11-25 07:00:00 7.4 16 Noroeste 30 Noroeste 3 -- -- 100
2017-11-25 06:00:00 7.6 14 Oeste 21 Oeste 0.8 -- -- 100
2017-11-25 05:00:00 7.6 0 Calma 20 Sudoeste 0 -- -- 99
2017-11-25 04:00:00 7.9 11 Oeste 29 Oeste 0.4 -- -- 98
2017-11-25 03:00:00 8.1 17 Noroeste 36 Noroeste 0.8 -- -- 100
2017-11-25 02:00:00 9.2 21 Noroeste 39 Noroeste 0.6 -- -- 100
2017-11-25 01:00:00 9.5 7 Noroeste 17 Noroeste 0.8 -- -- 100
2017-11-25 00:00:00 9.6 9 Noroeste 17 Oeste 1.6 -- -- 100
2017-11-24 23:00:00 9.8 8 Noroeste 12 Noroeste 1.2 -- -- 100
2017-11-24 22:00:00 9.9 0 Calma 3 Oeste 0.8 -- -- 100
2017-11-24 21:00:00 9.8 0 Calma 5 Oeste 0.4 -- -- 100
2017-11-24 20:00:00 9.6 0 Calma 10 Noroeste 0.8 -- -- 100
2017-11-24 19:00:00 9.6 10 Noroeste 17 Oeste 0.8 -- -- 100
2017-11-24 18:00:00 10 10 Oeste 22 Oeste 1.8 -- -- 100
2017-11-24 17:00:00 11.2 14 Noroeste 18 Noroeste 2.6 -- -- 99
2017-11-24 16:00:00 11.8 2 Sudeste 6 Sudeste 0.4 -- -- 99
2017-11-24 15:00:00 11.9 2 Sudeste 5 Sudeste 0 -- -- 99
2017-11-24 14:00:00 11.7 5 Oeste 11 Oeste 0 -- -- 98
2017-11-24 13:00:00 11.5 7 Sudoeste 15 Oeste 0 -- -- 98
2017-11-24 12:00:00 11.3 11 Oeste 17 Sudoeste 0 -- -- 99
2017-11-24 11:00:00 11.2 10 Oeste 21 Oeste 0 -- -- 99
2017-11-24 10:00:00 11.2 14 Oeste 19 Oeste 0 -- -- 100
2017-11-24 09:00:00 11.5 9 Sudoeste 15 Sudoeste 0 -- -- 100
2017-11-24 08:00:00 11.9 2 Oeste 12 Este 0 -- -- 99
2017-11-24 07:00:00 11.9 4 Oeste 15 Sudeste 0.2 -- -- 98
2017-11-24 06:00:00 12.4 2 Noroeste 13 Oeste 0.2 -- -- 97
2017-11-24 05:00:00 12.6 9 Sudoeste 18 Sudoeste 0 -- -- 93
2017-11-24 04:00:00 13.1 12 Oeste 26 Este 0 -- -- 87
2017-11-24 03:00:00 15.1 8 Sudeste 52 Sur 0 -- -- 63
2017-11-24 02:00:00 17.8 19 Sudoeste 78 Sudoeste 0 -- -- 43
2017-11-24 01:00:00 18 30 Sudoeste 81 Oeste 0 -- -- 44
2017-11-24 00:00:00 18.2 27 Sudoeste 74 Sudoeste 0 -- -- 45
2017-11-23 23:00:00 18.2 45 Sudoeste 75 Sudoeste 0 -- -- 46
2017-11-23 22:00:00 18.3 18 Sudoeste 44 Sudoeste 0 -- -- 49
2017-11-23 21:00:00 18.3 19 Sudoeste 55 Sudoeste 0 -- -- 52
2017-11-23 20:00:00 18.8 34 Sudoeste 58 Sudoeste 0 -- -- 49
2017-11-23 19:00:00 18.7 32 Sudoeste 56 Sudoeste 0 -- -- 48
2017-11-23 18:00:00 19 32 Sudoeste 65 Sudoeste 0 -- -- 47
2017-11-23 17:00:00 19.2 31 Sudoeste 62 Oeste 0 -- -- 45
2017-11-23 16:00:00 19.4 36 Sudoeste 64 Sudoeste 0 -- -- 41
2017-11-23 15:00:00 19.7 19 Sudoeste 40 Sudoeste 0 -- -- 42
2017-11-23 14:00:00 19.2 10 Sur 18 Sur 0 -- -- 56
2017-11-23 13:00:00 19.5 8 Sudeste 13 Sudeste 0 -- -- 53
2017-11-23 12:00:00 18.7 3 Oeste 9 Oeste 0 -- -- 55
2017-11-23 11:00:00 17.1 3 Sudoeste 15 Sudeste 0 -- -- 62
2017-11-23 10:00:00 15.3 10 Sudeste 14 Sudeste 0 -- -- 63
2017-11-23 09:00:00 15.7 4 Oeste 14 Sur 0 -- -- 52
2017-11-23 08:00:00 15.7 12 Este 39 Sudoeste 0 -- -- 52
2017-11-23 07:00:00 16.9 18 Sudoeste 50 Oeste 0 -- -- 48
2017-11-23 06:00:00 17.3 31 Sudoeste 57 Sudoeste 0 -- -- 45
2017-11-23 05:00:00 17.7 22 Sudoeste 66 Sudoeste 0 -- -- 41
2017-11-23 04:00:00 18.8 23 Sur 73 Sudoeste 0 -- -- 36
2017-11-23 03:00:00 18.6 44 Sudoeste 70 Sudoeste 0 -- -- 36
2017-11-23 02:00:00 17.8 29 Sudoeste 80 Sudoeste 0 -- -- 38
2017-11-23 01:00:00 18.3 54 Sudoeste 93 Sur 0 -- -- 34
2017-11-23 00:00:00 19 28 Sudoeste 79 Sudoeste 0 -- -- 29
2017-11-22 23:00:00 18.8 13 Oeste 73 Sudoeste 0 -- -- 29
2017-11-22 22:00:00 18.9 14 Nordeste 99 Sudoeste 0 -- -- 29
2017-11-22 21:00:00 19.4 66 Sudoeste 126 Oeste 0 -- -- 31
2017-11-22 20:00:00 18.7 26 Sur 82 Sudoeste 0 -- -- 35
2017-11-22 19:00:00 18.6 36 Sudoeste 104 Sudoeste 0 -- -- 36
2017-11-22 18:00:00 19.1 46 Sudoeste 100 Sudoeste 0 -- -- 34
2017-11-22 17:00:00 19.3 15 Sudeste 44 Oeste 0 -- -- 35
2017-11-22 16:00:00 19 12 Nordeste 41 Norte 0 -- -- 38
2017-11-22 15:00:00 21.5 17 Sudeste 71 Oeste 0 -- -- 33
2017-11-22 14:00:00 22.4 18 Este 62 Sudoeste 0 -- -- 30
2017-11-22 13:00:00 22.2 32 Sudoeste 70 Sudoeste 0 -- -- 24
2017-11-22 12:00:00 22.4 38 Sudoeste 55 Sudoeste 0 -- -- 23
2017-11-22 11:00:00 21.3 26 Sudoeste 49 Sudoeste 0 -- -- 25
2017-11-22 10:00:00 19.8 31 Sudoeste 64 Sudoeste 0 -- -- 26
2017-11-22 09:00:00 18.2 11 Sur 45 Sudoeste 0 -- -- 30
2017-11-22 08:00:00 18.4 20 Sudoeste 35 Sudoeste 0 -- -- 30
2017-11-22 07:00:00 16.2 8 Este 24 Sudoeste 0 -- -- 33
2017-11-22 06:00:00 15.8 4 Sudoeste 40 Sudoeste 0 -- -- 32
2017-11-22 05:00:00 15 4 Nordeste 26 Este 0 -- -- 34
2017-11-22 04:00:00 11.6 9 Este 15 Sudeste 0 -- -- 40
2017-11-22 03:00:00 12.4 9 Sur 24 Sudeste 0 -- -- 32
2017-11-22 02:00:00 12.8 10 Sudeste 22 Sudeste 0 -- -- 33
2017-11-22 01:00:00 9.4 8 Sudeste 19 Este 0 -- -- 46
2017-11-22 00:00:00 9.5 10 Este 14 Sudeste 0 -- -- 49
2017-11-21 23:00:00 10.7 2 Sur 9 Sudeste 0 -- -- 45
2017-11-21 22:00:00 10.6 5 Este 7 Este 0 -- -- 49
2017-11-21 21:00:00 10.1 4 Este 11 Este 0 -- -- 52
2017-11-21 20:00:00 10.8 2 Sudoeste 13 Sudeste 0 -- -- 54
2017-11-21 19:00:00 12 2 Este 12 Sudeste 0 -- -- 49
2017-11-21 18:00:00 13.9 6 Sudeste 9 Sudeste 0 -- -- 45
2017-11-21 17:00:00 16.6 5 Sudeste 10 Sudeste 0 -- -- 35
2017-11-21 16:00:00 19 6 Sudeste 8 Este 0 -- -- 33
2017-11-21 15:00:00 19.3 3 Sur 8 Sudoeste 0 -- -- 35
2017-11-21 14:00:00 18.8 6 Sudoeste 9 Sudoeste 0 -- -- 37
2017-11-21 13:00:00 17.8 4 Sudoeste 6 Sudoeste 0 -- -- 40
2017-11-21 12:00:00 15.6 4 Sudoeste 6 Sudoeste 0 -- -- 44
2017-11-21 11:00:00 13.2 0 Calma 5 Sudoeste 0 -- -- 46
2017-11-21 10:00:00 10.5 0 Calma 3 Sur 0 -- -- 49
2017-11-21 09:00:00 9.1 0 Calma -- -- 0 -- -- 49
2017-11-21 08:00:00 8.5 0 Calma 3 Sudeste 0 -- -- 53
2017-11-21 07:00:00 8.3 0 Calma 7 Nordeste 0 -- -- 55
2017-11-21 06:00:00 7.9 4 Este 6 Sudeste 0 -- -- 57
2017-11-21 05:00:00 8 3 Este 10 Nordeste 0 -- -- 57
2017-11-21 04:00:00 7.9 6 Sudoeste 12 Sudeste 0 -- -- 61
2017-11-21 03:00:00 8 6 Este 8 Este 0 -- -- 61
2017-11-21 02:00:00 8.6 4 Nordeste 6 Nordeste 0 -- -- 58
2017-11-21 01:00:00 9.1 0 Calma 9 Este 0 -- -- 57
2017-11-21 00:00:00 9.2 8 Este 10 Este 0 -- -- 60
2017-11-20 23:00:00 10.6 3 Este 4 Este 0 -- -- 53
2017-11-20 22:00:00 11 2 Nordeste 4 Sudoeste 0 -- -- 57
2017-11-20 21:00:00 10.4 2 Sudoeste 7 Este 0 -- -- 63
2017-11-20 20:00:00 11.7 6 Sudeste 7 Sudeste 0 -- -- 61
2017-11-20 19:00:00 12.8 3 Sudoeste 7 Este 0 -- -- 52
2017-11-20 18:00:00 14.7 4 Sudeste 9 Oeste 0 -- -- 50
2017-11-20 17:00:00 17 7 Oeste 11 Oeste 0 -- -- 40
2017-11-20 16:00:00 18.9 0 Calma 5 Este 0 -- -- 34
2017-11-20 15:00:00 18.9 2 Noroeste 8 Oeste 0 -- -- 34
2017-11-20 14:00:00 19.8 4 Sudoeste 8 Oeste 0 -- -- 37
2017-11-20 13:00:00 19.1 5 Oeste 8 Sudoeste 0 -- -- 37
2017-11-20 12:00:00 17.6 3 Sudoeste 6 Sudoeste 0 -- -- 34
2017-11-20 11:00:00 14.2 4 Sudoeste 5 Sudoeste 0 -- -- 37
2017-11-20 10:00:00 10.6 0 Calma -- -- 0 -- -- 45
2017-11-20 09:00:00 9 0 Calma 3 Nordeste 0 -- -- 49
2017-11-20 08:00:00 8.9 0 Calma 8 Sudoeste 0 -- -- 49
2017-11-20 07:00:00 8 4 Sudoeste 5 Sudoeste 0 -- -- 53
2017-11-20 06:00:00 7 4 Este 7 Este 0 -- -- 59
2017-11-20 05:00:00 7 3 Este 8 Este 0 -- -- 58
2017-11-20 04:00:00 6.6 3 Sudeste 10 Este 0 -- -- 60
2017-11-20 03:00:00 6.5 5 Este 7 Este 0 -- -- 62
2017-11-20 02:00:00 6.8 3 Sudoeste 8 Sudeste 0 -- -- 63
2017-11-20 01:00:00 6.3 3 Sur 8 Este 0 -- -- 65
2017-11-20 00:00:00 6.7 4 Este 9 Este 0 -- -- 68
2017-11-19 23:00:00 7.8 7 Sudeste 11 Sudeste 0 -- -- 61
2017-11-19 22:00:00 7.1 8 Sudoeste 11 Sudoeste 0 -- -- 64
2017-11-19 21:00:00 6.8 3 Este 12 Este 0 -- -- 70
2017-11-19 20:00:00 6.8 10 Este 15 Sudeste 0 -- -- 69
2017-11-19 19:00:00 7.8 11 Sudeste 14 Este 0 -- -- 64
2017-11-19 18:00:00 9 10 Sudeste 15 Sudeste 0 -- -- 62
2017-11-19 17:00:00 11.2 12 Sudeste 15 Sudeste 0 -- -- 50
2017-11-19 16:00:00 13.4 13 Sudeste 18 Sudeste 0 -- -- 41
2017-11-19 15:00:00 13.4 13 Sudeste 18 Sudeste 0 -- -- 44
2017-11-19 14:00:00 14.3 11 Sudeste 15 Sudeste 0 -- -- 48
2017-11-19 13:00:00 13.3 5 Sudoeste 6 Sudoeste 0 -- -- 52
2017-11-19 12:00:00 10.6 5 Sudoeste 7 Oeste 0 -- -- 54
2017-11-19 11:00:00 7.6 4 Sudoeste 6 Sudoeste 0 -- -- 75
2017-11-19 10:00:00 5.2 2 Sur 7 Sur 0 -- -- 90
2017-11-19 09:00:00 4.2 0 Calma 5 Sudoeste 0 -- -- 87
2017-11-19 08:00:00 4.2 6 Oeste 9 Oeste 0 -- -- 92
2017-11-19 07:00:00 3.6 0 Calma 5 Sur 0 -- -- 98
2017-11-19 06:00:00 4 0 Calma 7 Sudeste 0 -- -- 97
2017-11-19 05:00:00 4 0 Calma -- -- 0 -- -- 99
2017-11-19 04:00:00 4.5 0 Calma -- -- 0 -- -- 98
2017-11-19 03:00:00 5 0 Calma -- -- 0 -- -- 98
2017-11-19 02:00:00 5.9 0 Calma -- -- 0 -- -- 96
2017-11-19 01:00:00 5.9 0 Calma 9 Este 0 -- -- 99
2017-11-19 00:00:00 6.3 5 Este 12 Sudeste 0 -- -- 97
2017-11-18 23:00:00 7 5 Este 13 Este 0 -- -- 98
2017-11-18 22:00:00 7.6 9 Sudeste 22 Sudeste 0 -- -- 97
2017-11-18 21:00:00 7.9 14 Sudeste 18 Sudeste 0 -- -- 98
2017-11-18 20:00:00 8.6 10 Sudeste 15 Sudeste 0 -- -- 97
2017-11-18 19:00:00 8.8 12 Este 17 Este 0 -- -- 96
2017-11-18 18:00:00 10.3 9 Sudeste 22 Este 0 -- -- 91
2017-11-18 17:00:00 11.3 9 Este 29 Este 0 -- -- 86
2017-11-18 16:00:00 13.3 12 Sudeste 19 Sur 0 -- -- 76
2017-11-18 15:00:00 14 9 Sur 14 Sudeste 0 -- -- 71
2017-11-18 14:00:00 13.9 7 Sudeste 13 Sudeste 0 -- -- 70
2017-11-18 13:00:00 13.5 8 Sur 12 Sur 0 -- -- 69
2017-11-18 12:00:00 12.2 5 Sudeste 9 Sudeste 0 -- -- 75
2017-11-18 11:00:00 8.5 4 Sudoeste 8 Sudeste 0 -- -- 95
2017-11-18 10:00:00 5.9 4 Sur 6 Sur 0 -- -- 100
2017-11-18 09:00:00 3.8 3 Sudoeste 14 Sudeste 0 -- -- 100
2017-11-18 08:00:00 4.4 8 Este 10 Este 0 -- -- 100
2017-11-18 07:00:00 4.8 0 Calma 6 Este 0 -- -- 100
2017-11-18 06:00:00 5.3 0 Calma 5 Sudoeste 0 -- -- 100
2017-11-18 05:00:00 5.2 3 Oeste 11 Sudeste 0 -- -- 100
2017-11-18 04:00:00 5.7 6 Sudeste 9 Sudeste 0 -- -- 100
2017-11-18 03:00:00 6.2 0 Calma 5 Sudeste 0 -- -- 100
2017-11-18 02:00:00 6.3 4 Este 7 Sudeste 0 -- -- 99
2017-11-18 01:00:00 7.3 0 Calma 5 Sudeste 0 -- -- 97
2017-11-18 00:00:00 7.9 0 Calma 9 Sudoeste 0 -- -- 97
2017-11-17 23:00:00 8.2 5 Sur 12 Sudeste 0 -- -- 94
2017-11-17 22:00:00 9.1 6 Sur 15 Sudeste 0 -- -- 94
2017-11-17 21:00:00 9.5 6 Sudeste 14 Este 0 -- -- 94
2017-11-17 20:00:00 9.5 9 Sudeste 14 Sudeste 0 -- -- 95
2017-11-17 19:00:00 9.2 5 Sudeste 15 Este 0 -- -- 95
2017-11-17 18:00:00 10 6 Este 17 Este 0 -- -- 90
2017-11-17 17:00:00 12.2 4 Sur 8 Sudeste 0 -- -- 79
2017-11-17 16:00:00 14.1 6 Sudeste 10 Sur 0 -- -- 72
2017-11-17 15:00:00 14.4 3 Sudoeste 9 Sudoeste 0 -- -- 73
2017-11-17 14:00:00 14.1 4 Sudoeste 11 Sudoeste 0 -- -- 71
2017-11-17 13:00:00 12.7 5 Sudoeste 10 Oeste 0 -- -- 80
2017-11-17 12:00:00 11.9 3 Sudoeste 6 Sudeste 0 -- -- 89
2017-11-17 11:00:00 9.6 5 Sudeste 7 Sudeste 0 -- -- 100
2017-11-17 10:00:00 8.3 0 Calma 4 Sudeste 0 -- -- 100
2017-11-17 09:00:00 7.5 3 Sudeste 7 Sudeste 0 -- -- 100
2017-11-17 08:00:00 7.3 5 Sudeste 6 Sudeste 0 -- -- 100
2017-11-17 07:00:00 6.9 0 Calma 6 Sudeste 0 -- -- 100
2017-11-17 06:00:00 6.8 3 Nordeste 5 Nordeste 0 -- -- 100
2017-11-17 05:00:00 7.2 2 Oeste 10 Noroeste 0 -- -- 100
2017-11-17 04:00:00 6.2 3 Sudoeste 7 Sudeste 0 -- -- 100
2017-11-17 03:00:00 6.7 2 Sudeste 7 Sudoeste 0 -- -- 100
2017-11-17 02:00:00 6.8 3 Sudoeste 5 Sudoeste 0 -- -- 99
2017-11-17 01:00:00 7.8 2 Oeste 6 Sudoeste 0 -- -- 98
2017-11-17 00:00:00 7.7 2 Oeste 6 Oeste 0 -- -- 94
2017-11-16 23:00:00 8.1 0 Calma 2 Sudoeste 0 -- -- 95
2017-11-16 22:00:00 8.6 0 Calma 5 Sudoeste 0 -- -- 94
2017-11-16 21:00:00 8.7 0 Calma 4 Nordeste 0 -- -- 94
2017-11-16 20:00:00 9.1 2 Este 8 Este 0 -- -- 93
2017-11-16 19:00:00 10 5 Sudeste 9 Sudeste 0 -- -- 88
2017-11-16 18:00:00 11.5 3 Oeste 6 Sudoeste 0 -- -- 82
2017-11-16 17:00:00 13.2 3 Sur 15 Oeste 0 -- -- 70
2017-11-16 16:00:00 14.8 14 Oeste 20 Oeste 0 -- -- 67
2017-11-16 15:00:00 17 6 Oeste 10 Oeste 0 -- -- 51
2017-11-16 14:00:00 16.6 4 Oeste 9 Sur 0 -- -- 52
2017-11-16 13:00:00 16.3 3 Sudoeste 5 Sudoeste 0 -- -- 55
2017-11-16 12:00:00 14.6 2 Sur 4 Este 0 -- -- 62
2017-11-16 11:00:00 11.8 0 Calma 5 Sudoeste 0 -- -- 72
2017-11-16 10:00:00 8.8 3 Sudoeste 5 Sudeste 0 -- -- 74
2017-11-16 09:00:00 7.6 5 Sudoeste 6 Sudoeste 0 -- -- 73
2017-11-16 08:00:00 7.9 4 Oeste 7 Oeste 0 -- -- 72
2017-11-16 07:00:00 7.8 0 Calma -- -- 0 -- -- 73
2017-11-16 06:00:00 8.1 0 Calma 6 Oeste 0 -- -- 71
2017-11-16 05:00:00 8.3 4 Oeste 6 Oeste 0 -- -- 71
2017-11-16 04:00:00 7.7 0 Calma 4 Sudoeste 0 -- -- 76
2017-11-16 03:00:00 7.7 0 Calma 3 Oeste 0 -- -- 76
2017-11-16 02:00:00 7.6 0 Calma 5 Este 0 -- -- 76
2017-11-16 01:00:00 7.5 3 Este 8 Sudeste 0 -- -- 78
2017-11-16 00:00:00 7.5 5 Este 10 Sudeste 0 -- -- 79
2017-11-15 23:00:00 8.2 0 Calma 2 Norte 0 -- -- 77
2017-11-15 22:00:00 8.1 0 Calma 5 Este 0 -- -- 79
2017-11-15 21:00:00 8.8 0 Calma 2 Este 0 -- -- 76
2017-11-15 20:00:00 9.4 0 Calma 2 Oeste 0 -- -- 73
2017-11-15 19:00:00 10.1 0 Calma 3 Sudeste 0 -- -- 67
2017-11-15 18:00:00 11.3 0 Calma 8 Oeste 0 -- -- 64
2017-11-15 17:00:00 13.4 0 Calma 9 Oeste 0 -- -- 55
2017-11-15 16:00:00 14.5 4 Noroeste 8 Oeste 0 -- -- 54
2017-11-15 15:00:00 13.4 2 Oeste 5 Sur 0 -- -- 59
2017-11-15 14:00:00 13.3 3 Oeste 9 Oeste 0 -- -- 61
2017-11-15 13:00:00 13.5 3 Sur 11 Sudeste 0 -- -- 60
2017-11-15 12:00:00 11.3 2 Sudeste 6 Sudoeste 0 -- -- 72
2017-11-15 11:00:00 8.1 5 Sudoeste 11 Sudeste 0 -- -- 80
2017-11-15 10:00:00 5.4 4 Sudeste 7 Sudeste 0 -- -- 92
2017-11-15 09:00:00 3.8 2 Oeste 11 Sudeste 0 -- -- 95
2017-11-15 08:00:00 3.3 4 Sudeste 12 Sudeste 0 -- -- 97
2017-11-15 07:00:00 3.6 5 Sudeste 8 Sudeste 0 -- -- 96
2017-11-15 06:00:00 3.3 0 Calma 6 Sudeste 0 -- -- 97
2017-11-15 05:00:00 3.6 2 Este 7 Sudeste 0 -- -- 97
2017-11-15 04:00:00 3.5 4 Sur 20 Sudeste 0 -- -- 98
2017-11-15 03:00:00 3.4 10 Sudeste 20 Sudeste 0 -- -- 99
2017-11-15 02:00:00 3.7 12 Sudeste 24 Sudeste 0 -- -- 99
2017-11-15 01:00:00 3.6 10 Sudeste 16 Este 0 -- -- 98
2017-11-15 00:00:00 4 4 Sudeste 12 Sudeste 0 -- -- 97